Airfield :
LOGIN :

Register | Disclaimer

   EN    FR    IT 

 










Legend :    VFR   Marginal VFR   IFR   Intensive IFR   Very Intensive IFR
Visi :
Ceiling :
>= 8 km
>= 3000ft
5 to 8 km
1000 to 3000 ft
1500m to 5 km
500 to 1000 ft
800 to 1500m
200 to 500 ft
< 800m
< 200 ft
Symbols :   Thunderstorms  Fog  Heavy snow  Heavy precipitations  Wind > 20 kt
SIGMETs :     Misc.  Thunderstorms  Icing  Turbulence  Mountain Waves  Volcanic Ashes







- Airport Elevation : 645 ft
- IATA code : DLE
- Download approach charts


LFGJ - Dole Tavaux

CURRENT METAR :
  • 210230Z AUTO 12004KT 4900 0900 R05/P2000 BCFG VV/// 08/08 Q1014 TEMPO 0500 FG

EXPIRED METARs :
  • 210200Z AUTO VRB01KT 0600 0500 R05/0375D FG VV/// 09/08 Q1014
  • 210130Z AUTO 00000KT 8000 1100 R05/1200U NSC 09/09 Q1014
  • 210100Z AUTO VRB02KT 8000 NSC 10/09 Q1014
  • 210030Z AUTO 18002KT CAVOK 10/10 Q1014
  • 210000Z AUTO VRB02KT CAVOK 11/09 Q1014

TAF TAF LFGJ
Valid from the 21 at 03:00 until the 21 at 12:00 UTC


210200Z 2103/2112 VRB03KT 5000 BR NSC
PROB40
TEMPO 2103/2106 0500 FG VV///
BECMG 2106/2108 CAVOK
BECMG 2110/2112 FEW040CB BKN230
No reported NOTAMs for that airfield.



MET'MAP, your aeronautical weather chart ! - Copyright ORBIFLY December 2007 - Disclaimer

ORBIFLY MET'MAP TEAM :

Programming & Development : Alexandra Zaïnal
Concept & Development : Baudouin d'Aumeries
Co-Development & Prog : Marc-Olivier Méhu
Technical & hardware support : Manuel Goepfert

Contact : metmap@orbifly.com




SOURCES & CREDITS :

   NOAA